Time;durP1;ratioP1;P1;durP2;ratioP2;P2;SDS_P1;SDS_P2;PMS_P1;PMS_P2;Temp;Humidity;BMP_temperature;BMP_pressure;BME280_temperature;BME280_humidity;BME280_pressure;Samples;Min_cycle;Max_cycle;Signal;HPM_P1;HPM_P2
2021/10/15 00:01:31;;;;;;;3.40;2.10;;;12.20;78.30;;;;;;4993181;28;20235;-76
2021/10/15 00:03:56;;;;;;;4.73;2.30;;;12.10;78.80;;;;;;4992289;28;20592;-75
2021/10/15 00:06:22;;;;;;;11.30;2.90;;;12.10;79.50;;;;;;4992477;28;20211;-76
2021/10/15 00:08:48;;;;;;;3.73;2.27;;;12.00;79.90;;;;;;4992225;28;20168;-76
2021/10/15 00:11:13;;;;;;;6.13;3.00;;;12.00;80.40;;;;;;4993048;28;20669;-76
2021/10/15 00:13:39;;;;;;;5.00;3.17;;;11.90;81.10;;;;;;4993558;28;20331;-76
2021/10/15 00:16:06;;;;;;;4.90;2.70;;;11.90;81.80;;;;;;4993168;28;20156;-76
2021/10/15 00:18:32;;;;;;;4.00;2.50;;;11.80;82.10;;;;;;5007984;28;20180;-76
2021/10/15 00:20:58;;;;;;;4.97;2.60;;;11.80;82.80;;;;;;5004859;28;20911;-75
2021/10/15 00:23:24;;;;;;;5.00;3.73;;;11.70;83.10;;;;;;5010891;28;20444;-76
2021/10/15 00:25:49;;;;;;;4.83;2.30;;;11.70;83.50;;;;;;5010238;28;20493;-76
2021/10/15 00:28:15;;;;;;;8.30;2.87;;;11.60;83.70;;;;;;5010171;28;20190;-76
2021/10/15 00:30:41;;;;;;;4.30;2.90;;;11.60;83.80;;;;;;5011774;28;20237;-76
2021/10/15 00:33:07;;;;;;;6.50;2.53;;;11.60;83.90;;;;;;5012490;28;20267;-76
2021/10/15 00:35:32;;;;;;;8.63;3.30;;;11.50;83.70;;;;;;5012747;28;20808;-75
2021/10/15 00:37:58;;;;;;;3.20;2.20;;;11.50;83.70;;;;;;5012090;28;20187;-75
2021/10/15 00:40:24;;;;;;;4.97;3.27;;;11.40;83.50;;;;;;5011269;28;20206;-75
2021/10/15 00:42:50;;;;;;;3.47;2.50;;;11.40;83.30;;;;;;4994702;28;20168;-75
2021/10/15 00:45:15;;;;;;;4.77;2.80;;;11.40;83.20;;;;;;5012361;28;20429;-75
2021/10/15 00:47:41;;;;;;;6.80;2.40;;;11.40;83.20;;;;;;4997371;28;20208;-75
2021/10/15 00:50:07;;;;;;;7.83;2.97;;;11.30;83.10;;;;;;4998662;28;20524;-76
2021/10/15 00:52:33;;;;;;;6.97;2.97;;;11.30;83.00;;;;;;5012030;28;20187;-76
2021/10/15 00:54:59;;;;;;;4.93;2.23;;;11.30;82.80;;;;;;5010972;28;20770;-75
2021/10/15 00:57:25;;;;;;;7.17;3.27;;;11.30;82.80;;;;;;5010893;28;20438;-76
2021/10/15 00:59:51;;;;;;;5.00;2.70;;;11.30;82.90;;;;;;5011690;28;20629;-76
2021/10/15 01:02:17;;;;;;;7.60;2.87;;;11.20;82.90;;;;;;5015788;28;20184;-75
2021/10/15 01:04:43;;;;;;;6.77;2.93;;;11.20;82.90;;;;;;5021110;28;20405;-75
2021/10/15 01:07:09;;;;;;;8.20;2.37;;;11.20;83.00;;;;;;5028035;28;20465;-75
2021/10/15 01:09:36;;;;;;;8.00;3.20;;;11.20;82.90;;;;;;5023837;28;20178;-75
2021/10/15 01:12:03;;;;;;;5.90;3.17;;;11.10;82.80;;;;;;5011901;28;20457;-75
2021/10/15 01:14:30;;;;;;;7.67;3.27;;;11.10;82.70;;;;;;5010482;28;20662;-75
2021/10/15 01:16:56;;;;;;;6.17;3.83;;;11.10;82.80;;;;;;5010134;28;20438;-75
2021/10/15 01:19:22;;;;;;;12.83;3.20;;;11.10;82.90;;;;;;5011038;28;20414;-75
2021/10/15 01:21:48;;;;;;;5.00;2.40;;;11.10;83.00;;;;;;5011876;28;20471;-76
2021/10/15 01:24:14;;;;;;;5.87;2.47;;;11.00;83.00;;;;;;5011141;28;20684;-76
2021/10/15 01:26:41;;;;;;;5.30;2.23;;;11.00;83.20;;;;;;5012063;28;20422;-75
2021/10/15 01:29:07;;;;;;;11.07;2.90;;;10.90;83.30;;;;;;5011839;28;20514;-76
2021/10/15 01:31:34;;;;;;;7.27;3.10;;;10.90;83.60;;;;;;5009666;28;20461;-75
2021/10/15 01:34:00;;;;;;;4.13;2.43;;;10.80;83.90;;;;;;5011948;28;20410;-75
2021/10/15 01:36:26;;;;;;;5.63;3.37;;;10.80;84.10;;;;;;5011598;28;20852;-75
2021/10/15 01:38:53;;;;;;;4.63;2.17;;;10.80;84.30;;;;;;5010039;28;20201;-75
2021/10/15 01:41:18;;;;;;;5.77;2.60;;;10.70;84.10;;;;;;5011785;28;20406;-75
2021/10/15 01:43:44;;;;;;;4.93;2.97;;;10.70;84.30;;;;;;5010223;28;20513;-76
2021/10/15 01:46:10;;;;;;;11.67;3.77;;;10.70;84.60;;;;;;5011720;28;20614;-75
2021/10/15 01:48:36;;;;;;;5.80;2.80;;;10.70;84.60;;;;;;5011737;28;20716;-75
2021/10/15 01:51:01;;;;;;;8.00;3.20;;;10.70;84.80;;;;;;5010422;28;20276;-75
2021/10/15 01:53:27;;;;;;;7.47;3.00;;;10.60;84.70;;;;;;5011282;28;20167;-75
2021/10/15 01:55:53;;;;;;;5.87;2.80;;;10.60;84.80;;;;;;5010007;28;20175;-76
2021/10/15 01:58:19;;;;;;;5.37;3.00;;;10.60;84.80;;;;;;5009876;28;20465;-76
2021/10/15 02:00:46;;;;;;;12.90;3.43;;;10.60;85.00;;;;;;5010757;28;20480;-76
2021/10/15 02:03:14;;;;;;;6.87;3.27;;;10.50;85.10;;;;;;5009387;28;20414;-75
2021/10/15 02:05:40;;;;;;;7.00;2.90;;;10.50;85.20;;;;;;5010905;28;20537;-75
2021/10/15 02:08:06;;;;;;;10.07;3.30;;;10.50;85.30;;;;;;4999790;28;20820;-73
2021/10/15 02:10:32;;;;;;;4.50;3.10;;;10.50;85.40;;;;;;5009048;28;20179;-72
2021/10/15 02:12:57;;;;;;;5.30;3.20;;;10.50;85.40;;;;;;5008981;28;20482;-73
2021/10/15 02:15:23;;;;;;;4.70;3.23;;;10.50;85.50;;;;;;5009409;28;20776;-73
2021/10/15 02:17:49;;;;;;;11.93;3.50;;;10.50;85.40;;;;;;5009173;28;20238;-73
2021/10/15 02:20:17;;;;;;;5.70;3.10;;;10.50;85.40;;;;;;5008661;28;20414;-73
2021/10/15 02:22:44;;;;;;;5.30;3.00;;;10.50;85.30;;;;;;5010544;28;20501;-72
2021/10/15 02:25:12;;;;;;;5.77;2.77;;;10.50;85.20;;;;;;5010375;28;20410;-72
2021/10/15 02:27:38;;;;;;;4.87;2.60;;;10.50;85.10;;;;;;4996470;28;20442;-72
2021/10/15 02:30:06;;;;;;;8.30;3.33;;;10.50;86.00;;;;;;4990342;28;20822;-72
2021/10/15 02:32:31;;;;;;;12.33;3.30;;;10.50;85.20;;;;;;4991307;28;20192;-72
2021/10/15 02:34:57;;;;;;;6.63;2.97;;;10.50;85.40;;;;;;4990995;28;20403;-72
2021/10/15 02:37:23;;;;;;;6.50;3.33;;;10.50;85.40;;;;;;4990629;28;20254;-72
2021/10/15 02:39:48;;;;;;;4.63;3.10;;;10.50;85.40;;;;;;4990253;28;20175;-72
2021/10/15 02:42:14;;;;;;;5.27;2.80;;;10.40;85.20;;;;;;4990681;28;20176;-73
2021/10/15 02:44:41;;;;;;;6.30;3.23;;;10.40;85.30;;;;;;4990933;28;20176;-72
2021/10/15 02:47:06;;;;;;;4.40;3.33;;;10.40;85.60;;;;;;4990638;28;20909;-74
2021/10/15 02:49:33;;;;;;;7.10;2.97;;;10.40;85.40;;;;;;4990981;28;20559;-73
2021/10/15 02:51:59;;;;;;;10.00;3.63;;;10.30;85.50;;;;;;4990418;28;20553;-73
2021/10/15 02:54:24;;;;;;;5.47;3.00;;;10.30;86.50;;;;;;4989758;28;20168;-73
2021/10/15 02:56:50;;;;;;;5.17;3.40;;;10.30;85.80;;;;;;4990537;28;20530;-72
2021/10/15 02:59:16;;;;;;;8.73;3.80;;;10.30;86.10;;;;;;4990615;28;20195;-73
2021/10/15 03:01:41;;;;;;;7.40;3.50;;;10.30;86.10;;;;;;4990014;28;20187;-72
2021/10/15 03:04:07;;;;;;;6.80;3.20;;;10.30;86.00;;;;;;4989953;28;20172;-72
2021/10/15 03:06:34;;;;;;;8.20;3.63;;;10.30;86.10;;;;;;4988867;28;20202;-72
2021/10/15 03:09:01;;;;;;;7.73;2.83;;;10.30;86.10;;;;;;4989141;28;20259;-73
2021/10/15 03:11:26;;;;;;;4.80;3.00;;;10.40;85.70;;;;;;4988171;28;20461;-73
2021/10/15 03:13:52;;;;;;;5.73;3.70;;;10.40;85.40;;;;;;4989605;28;20407;-73
2021/10/15 03:16:18;;;;;;;5.90;3.77;;;10.50;85.20;;;;;;4993765;28;20537;-73
2021/10/15 03:18:43;;;;;;;6.87;3.30;;;10.60;85.90;;;;;;4994100;28;20209;-73
2021/10/15 03:21:09;;;;;;;8.67;4.10;;;10.60;84.70;;;;;;4993353;28;20187;-73
2021/10/15 03:23:35;;;;;;;9.97;3.73;;;10.70;84.50;;;;;;4993706;28;20183;-73
2021/10/15 03:26:01;;;;;;;7.10;3.23;;;10.70;84.10;;;;;;4993296;28;20195;-72
2021/10/15 03:28:27;;;;;;;10.47;4.07;;;10.70;83.80;;;;;;4993418;28;20238;-72
2021/10/15 03:30:52;;;;;;;9.23;3.10;;;10.80;83.80;;;;;;4992884;28;20917;-73
2021/10/15 03:33:18;;;;;;;4.90;2.97;;;10.80;83.50;;;;;;4993581;28;20309;-74
2021/10/15 03:35:44;;;;;;;6.60;3.40;;;10.80;83.10;;;;;;4994122;28;20701;-73
2021/10/15 03:38:09;;;;;;;11.37;3.70;;;10.90;83.20;;;;;;4993081;28;20246;-71
2021/10/15 03:40:35;;;;;;;9.13;4.63;;;11.00;83.30;;;;;;4993294;28;20274;-72
2021/10/15 03:43:01;;;;;;;11.20;4.60;;;11.00;83.00;;;;;;4994063;28;20252;-73
2021/10/15 03:45:26;;;;;;;11.93;3.90;;;11.00;82.80;;;;;;4993738;28;20168;-73
2021/10/15 03:47:52;;;;;;;11.80;4.10;;;11.00;82.90;;;;;;4992947;28;20239;-72
2021/10/15 03:50:18;;;;;;;7.80;4.80;;;11.10;82.20;;;;;;4992595;28;20210;-73
2021/10/15 03:52:44;;;;;;;5.40;3.63;;;11.10;82.30;;;;;;4993323;28;20294;-73
2021/10/15 03:55:11;;;;;;;8.00;2.83;;;11.10;82.30;;;;;;4992101;28;20164;-73
2021/10/15 03:57:37;;;;;;;8.07;4.03;;;11.10;82.00;;;;;;4993062;28;20684;-73
2021/10/15 04:00:08;;;;;;;5.33;3.10;;;11.10;81.90;;;;;;4991093;28;20598;-72
2021/10/15 04:02:44;;;;;;;11.37;3.87;;;11.10;82.00;;;;;;4992971;28;20425;-73
2021/10/15 04:05:11;;;;;;;11.60;4.00;;;11.10;82.20;;;;;;4992463;28;20415;-72
2021/10/15 04:07:37;;;;;;;4.00;3.10;;;11.10;82.20;;;;;;4992705;28;21119;-73
2021/10/15 04:10:05;;;;;;;9.73;3.80;;;11.10;81.90;;;;;;4992285;28;20418;-72
2021/10/15 04:12:31;;;;;;;7.30;3.37;;;11.10;82.10;;;;;;4975378;28;20470;-73
2021/10/15 04:14:57;;;;;;;4.53;3.30;;;11.10;82.10;;;;;;4992822;28;20415;-72
2021/10/15 04:17:22;;;;;;;6.87;3.50;;;11.10;81.90;;;;;;4992795;28;20184;-72
2021/10/15 04:19:48;;;;;;;8.43;3.40;;;11.10;81.90;;;;;;4991981;28;20156;-73
2021/10/15 04:22:14;;;;;;;10.00;3.43;;;11.10;81.80;;;;;;4991139;28;20527;-73
2021/10/15 04:24:40;;;;;;;8.03;3.27;;;11.10;81.90;;;;;;4992501;28;20180;-73
2021/10/15 04:27:06;;;;;;;7.27;4.00;;;11.10;82.00;;;;;;4992561;28;20566;-73
2021/10/15 04:29:33;;;;;;;9.57;3.37;;;11.10;81.80;;;;;;4990908;28;20792;-73
2021/10/15 04:31:59;;;;;;;7.27;3.23;;;11.20;81.70;;;;;;4990603;28;20817;-73
2021/10/15 04:34:25;;;;;;;4.83;3.53;;;11.20;81.50;;;;;;4991312;28;20781;-73
2021/10/15 04:36:51;;;;;;;7.97;4.03;;;11.20;81.30;;;;;;4997749;28;20438;-73
2021/10/15 04:39:16;;;;;;;4.40;3.37;;;11.20;81.30;;;;;;5011049;28;20874;-73
2021/10/15 04:41:42;;;;;;;7.60;3.30;;;11.20;81.00;;;;;;5013611;28;20177;-72
2021/10/15 04:44:08;;;;;;;9.17;3.80;;;11.20;80.80;;;;;;5018496;28;20167;-72
2021/10/15 04:46:33;;;;;;;10.47;3.93;;;11.20;81.00;;;;;;5021358;28;20203;-72
2021/10/15 04:48:59;;;;;;;5.10;3.80;;;11.20;80.90;;;;;;5007283;28;20179;-71
2021/10/15 04:51:25;;;;;;;11.77;4.00;;;11.30;80.90;;;;;;4991741;28;20210;-73
2021/10/15 04:53:50;;;;;;;9.10;4.40;;;11.30;80.70;;;;;;4992183;28;20311;-72
2021/10/15 04:56:16;;;;;;;8.63;3.80;;;11.30;80.70;;;;;;4991242;28;20778;-72
2021/10/15 04:58:42;;;;;;;6.43;3.93;;;11.30;80.90;;;;;;4991925;28;20167;-72
2021/10/15 05:01:07;;;;;;;9.00;4.47;;;11.40;81.20;;;;;;4991499;28;20164;-72
2021/10/15 05:03:33;;;;;;;11.53;3.50;;;11.40;81.30;;;;;;4991642;28;20480;-71
2021/10/15 05:05:59;;;;;;;6.87;4.00;;;11.40;81.30;;;;;;4990361;28;20172;-71
2021/10/15 05:08:30;;;;;;;10.23;4.77;;;11.40;81.60;;;;;;4990558;28;20655;-72
2021/10/15 05:10:56;;;;;;;10.53;4.00;;;11.40;81.60;;;;;;4989840;28;20179;-72
2021/10/15 05:13:22;;;;;;;11.03;4.50;;;11.40;81.60;;;;;;4991473;28;20489;-73
2021/10/15 05:15:48;;;;;;;8.27;3.83;;;11.40;81.60;;;;;;4991652;28;20411;-72
2021/10/15 05:18:15;;;;;;;9.27;4.30;;;11.40;81.40;;;;;;4991133;28;20203;-73
2021/10/15 05:20:42;;;;;;;7.20;3.33;;;11.40;81.10;;;;;;4991625;28;20163;-75
2021/10/15 05:23:08;;;;;;;8.00;3.70;;;11.40;81.00;;;;;;4992018;28;20888;-72
2021/10/15 05:25:35;;;;;;;12.23;4.10;;;11.40;81.00;;;;;;4990183;28;20414;-72
2021/10/15 05:28:00;;;;;;;10.00;3.50;;;11.40;80.80;;;;;;4991072;28;20741;-72
2021/10/15 05:30:27;;;;;;;10.43;4.73;;;11.40;80.70;;;;;;4991001;28;20413;-72
2021/10/15 05:32:53;;;;;;;15.00;4.57;;;11.40;80.70;;;;;;4991121;28;20521;-72
2021/10/15 05:35:19;;;;;;;7.00;4.00;;;11.40;80.80;;;;;;4973603;28;20473;-73
2021/10/15 05:37:45;;;;;;;9.47;4.17;;;11.40;80.50;;;;;;4989849;28;20435;-72
2021/10/15 05:40:11;;;;;;;7.30;4.53;;;11.40;80.50;;;;;;4990830;28;20422;-72
2021/10/15 05:42:42;;;;;;;8.50;3.30;;;11.40;80.60;;;;;;4991725;28;20195;-72
2021/10/15 05:45:08;;;;;;;14.70;4.50;;;11.40;80.50;;;;;;5010277;28;20433;-72
2021/10/15 05:47:34;;;;;;;8.27;3.80;;;11.40;80.50;;;;;;4996664;28;20534;-73
2021/10/15 05:50:00;;;;;;;8.20;4.07;;;11.40;80.40;;;;;;5007581;28;20190;-73
2021/10/15 05:52:46;;;;;;;11.63;3.90;;;11.40;80.30;;;;;;5011103;28;20245;-72
2021/10/15 06:00:23;;;;;;;12.80;5.40;;;11.40;80.30;;;;;;5010066;28;20471;-74
2021/10/15 06:02:49;;;;;;;6.03;3.93;;;11.40;80.30;;;;;;4994721;28;20431;-73
2021/10/15 06:16:09;;;;;;;6.93;4.27;;;11.50;80.50;;;;;;4957925;28;20889;-73
2021/10/15 06:18:38;;;;;;;10.03;5.37;;;11.50;80.40;;;;;;5008979;28;20425;-74
2021/10/15 06:21:05;;;;;;;9.53;4.70;;;11.60;80.30;;;;;;5009885;28;20445;-73
2021/10/15 06:23:32;;;;;;;9.83;4.07;;;11.60;80.20;;;;;;5009075;28;20468;-73
2021/10/15 06:25:59;;;;;;;8.07;4.43;;;11.60;80.10;;;;;;5010510;28;20394;-73
2021/10/15 06:28:25;;;;;;;7.73;5.07;;;11.70;80.10;;;;;;5008567;28;20815;-73
2021/10/15 06:30:50;;;;;;;7.47;5.03;;;11.70;80.00;;;;;;4994242;28;20439;-73
2021/10/15 06:33:16;;;;;;;14.50;4.20;;;11.70;79.90;;;;;;4990901;28;20187;-74
2021/10/15 06:35:42;;;;;;;6.90;4.13;;;11.70;79.70;;;;;;4991137;28;20255;-73
2021/10/15 06:38:08;;;;;;;8.77;4.50;;;11.80;79.80;;;;;;5005651;28;20250;-73
2021/10/15 06:40:34;;;;;;;10.30;4.93;;;11.80;79.80;;;;;;4989463;28;20172;-74
2021/10/15 06:43:00;;;;;;;14.47;7.50;;;11.80;79.60;;;;;;4990673;28;20250;-73
2021/10/15 06:45:25;;;;;;;11.03;5.10;;;11.80;79.80;;;;;;4990117;28;20678;-73
2021/10/15 06:47:51;;;;;;;10.47;4.90;;;11.80;79.60;;;;;;5006490;28;20202;-73
2021/10/15 06:50:17;;;;;;;11.43;5.30;;;11.80;79.40;;;;;;5013845;28;20280;-73
2021/10/15 06:52:46;;;;;;;12.63;4.27;;;11.80;79.60;;;;;;5014191;28;20191;-73
2021/10/15 06:55:16;;;;;;;7.67;4.30;;;11.90;79.80;;;;;;5013762;28;20209;-73
2021/10/15 06:57:43;;;;;;;6.77;4.57;;;11.90;79.60;;;;;;5014467;28;20783;-73
2021/10/15 07:00:10;;;;;;;10.33;4.30;;;11.90;79.70;;;;;;5013653;28;20880;-74
2021/10/15 07:02:36;;;;;;;8.93;4.33;;;11.90;79.80;;;;;;5014226;28;20441;-73
2021/10/15 07:05:02;;;;;;;10.87;4.73;;;12.00;79.60;;;;;;4996814;28;20429;-74
2021/10/15 07:07:27;;;;;;;10.80;5.03;;;12.00;79.50;;;;;;5012686;28;20441;-73
2021/10/15 07:09:53;;;;;;;8.03;4.13;;;12.00;79.50;;;;;;5013452;28;20805;-74
2021/10/15 07:12:19;;;;;;;12.20;4.33;;;12.00;80.40;;;;;;5012609;28;20552;-73
2021/10/15 07:14:45;;;;;;;12.20;5.73;;;12.10;80.30;;;;;;5012456;28;20202;-73
2021/10/15 07:17:11;;;;;;;15.23;4.33;;;12.10;80.00;;;;;;5014025;28;20820;-74
2021/10/15 07:19:37;;;;;;;12.40;4.33;;;12.10;80.00;;;;;;5013899;28;20214;-72
2021/10/15 07:22:02;;;;;;;9.80;4.30;;;12.10;80.00;;;;;;5013945;28;20162;-72
2021/10/15 07:24:28;;;;;;;14.57;5.13;;;12.20;80.60;;;;;;5014251;28;20262;-74
2021/10/15 07:26:54;;;;;;;10.20;4.27;;;12.30;80.00;;;;;;5014182;28;20600;-72
2021/10/15 07:29:19;;;;;;;9.53;4.60;;;12.30;80.30;;;;;;5012721;28;20652;-73
2021/10/15 07:31:45;;;;;;;10.10;4.77;;;12.30;79.90;;;;;;5012792;28;20253;-74
2021/10/15 07:34:12;;;;;;;9.43;4.30;;;12.30;80.10;;;;;;5012684;28;20664;-73
2021/10/15 07:36:39;;;;;;;6.63;4.20;;;12.40;80.00;;;;;;5014119;28;20294;-73
2021/10/15 07:39:06;;;;;;;7.90;4.50;;;12.40;80.20;;;;;;5013876;28;20429;-74
2021/10/15 07:41:32;;;;;;;7.00;3.70;;;12.40;80.00;;;;;;5012744;28;20409;-73
2021/10/15 07:43:58;;;;;;;9.00;5.10;;;12.50;80.40;;;;;;5012459;28;20418;-73
2021/10/15 07:46:24;;;;;;;10.40;4.97;;;12.50;80.80;;;;;;5013378;28;20519;-73
2021/10/15 07:48:49;;;;;;;10.13;5.73;;;12.60;80.50;;;;;;5013311;28;20198;-74
2021/10/15 07:51:15;;;;;;;8.97;4.70;;;12.60;80.40;;;;;;5012623;28;20209;-73
2021/10/15 07:53:41;;;;;;;9.00;4.27;;;12.70;80.70;;;;;;5013517;28;20164;-73
2021/10/15 07:56:07;;;;;;;12.20;4.77;;;12.70;80.70;;;;;;5012358;28;20830;-72
2021/10/15 07:58:32;;;;;;;10.10;4.70;;;12.80;81.30;;;;;;5012630;28;20178;-74
2021/10/15 08:01:00;;;;;;;8.17;4.90;;;12.90;80.50;;;;;;5011949;28;20167;-74
2021/10/15 08:03:26;;;;;;;6.23;4.77;;;12.90;80.20;;;;;;5012987;28;20171;-74
2021/10/15 08:05:52;;;;;;;8.70;6.20;;;12.90;80.80;;;;;;5012782;28;20585;-73
2021/10/15 08:08:18;;;;;;;6.97;5.20;;;13.00;80.50;;;;;;5011397;28;20513;-73
2021/10/15 08:10:46;;;;;;;13.70;9.23;;;13.10;80.60;;;;;;5012361;28;20563;-74
2021/10/15 08:13:13;;;;;;;14.17;5.00;;;13.10;80.60;;;;;;5012581;28;20484;-73
2021/10/15 08:15:39;;;;;;;5.90;4.13;;;13.20;80.40;;;;;;5013528;28;20250;-73
2021/10/15 08:18:04;;;;;;;9.53;4.70;;;13.20;80.60;;;;;;5013312;28;20773;-73
2021/10/15 08:20:30;;;;;;;9.93;4.33;;;13.30;80.20;;;;;;5011496;28;20918;-73
2021/10/15 08:22:56;;;;;;;15.40;12.63;;;13.40;80.20;;;;;;5013626;28;20712;-73
2021/10/15 08:25:23;;;;;;;7.00;4.30;;;13.40;79.90;;;;;;5028973;28;20185;-74
2021/10/15 08:27:49;;;;;;;8.27;4.40;;;13.50;79.80;;;;;;4997501;28;20434;-74
2021/10/15 08:30:15;;;;;;;11.97;4.43;;;13.40;79.40;;;;;;5017498;28;20493;-73
2021/10/15 08:32:41;;;;;;;7.13;4.30;;;13.40;79.90;;;;;;5017516;28;20501;-72
2021/10/15 08:35:09;;;;;;;11.27;5.10;;;13.40;80.20;;;;;;5017030;28;20567;-73
2021/10/15 08:37:37;;;;;;;8.43;3.90;;;13.40;80.40;;;;;;5012705;28;20237;-73
2021/10/15 08:40:04;;;;;;;9.03;4.80;;;13.30;80.60;;;;;;5011947;28;20418;-74
2021/10/15 08:42:30;;;;;;;13.30;5.17;;;13.30;80.90;;;;;;5012452;28;20450;-73
2021/10/15 08:44:56;;;;;;;11.83;5.10;;;13.20;81.30;;;;;;5011108;28;20576;-73
2021/10/15 08:47:21;;;;;;;10.10;4.80;;;13.20;81.80;;;;;;5014819;28;20285;-74
2021/10/15 08:49:47;;;;;;;8.20;4.97;;;13.20;82.10;;;;;;5011721;28;20171;-73
2021/10/15 08:52:14;;;;;;;5.70;3.83;;;13.30;82.40;;;;;;5012026;28;20210;-74
2021/10/15 08:54:43;;;;;;;7.83;4.17;;;13.30;82.50;;;;;;5010878;28;20558;-73
2021/10/15 08:57:10;;;;;;;8.37;4.97;;;13.40;82.50;;;;;;5012227;28;20985;-74
2021/10/15 08:59:44;;;;;;;15.77;5.77;;;13.60;82.10;;;;;;5011763;28;20496;-74
2021/10/15 09:02:13;;;;;;;10.67;5.00;;;13.60;81.70;;;;;;5012236;28;20492;-74
2021/10/15 09:05:03;;;;;;;7.07;4.90;;;13.60;81.60;;;;;;5012248;28;20425;-73
2021/10/15 09:07:29;;;;;;;7.47;4.37;;;13.70;81.80;;;;;;5011763;28;20592;-74
2021/10/15 09:10:10;;;;;;;9.17;5.77;;;13.70;82.10;;;;;;5011966;28;20518;-73
2021/10/15 09:12:47;;;;;;;13.97;4.50;;;13.70;82.10;;;;;;5010059;28;20195;-74
2021/10/15 09:15:16;;;;;;;18.20;6.73;;;13.70;82.50;;;;;;5011155;28;20471;-73
2021/10/15 09:17:52;;;;;;;10.50;6.70;;;13.70;82.60;;;;;;5011969;28;20429;-74
2021/10/15 09:20:34;;;;;;;14.37;7.90;;;13.80;82.60;;;;;;5012027;28;20905;-74
2021/10/15 09:23:00;;;;;;;10.47;4.90;;;13.90;81.90;;;;;;5010757;28;20414;-75
2021/10/15 09:25:41;;;;;;;8.47;5.17;;;14.00;82.00;;;;;;5011494;28;20410;-74
2021/10/15 09:28:15;;;;;;;7.53;5.07;;;14.00;81.50;;;;;;5010709;28;20561;-74
2021/10/15 09:30:43;;;;;;;8.23;4.53;;;14.10;81.50;;;;;;5011541;28;20414;-75
2021/10/15 09:33:09;;;;;;;6.60;4.17;;;14.10;81.40;;;;;;5009868;28;20466;-73
2021/10/15 09:35:35;;;;;;;15.10;5.17;;;14.10;82.20;;;;;;5010792;28;20445;-73
2021/10/15 09:38:05;;;;;;;8.03;4.63;;;14.10;82.10;;;;;;5012706;28;20437;-73
2021/10/15 09:40:33;;;;;;;8.70;4.80;;;14.10;81.90;;;;;;5012005;28;21117;-73
2021/10/15 09:43:03;;;;;;;8.43;4.87;;;14.00;82.10;;;;;;5012069;28;21014;-73
2021/10/15 09:45:38;;;;;;;8.10;4.20;;;14.00;82.20;;;;;;5012880;28;20421;-73
2021/10/15 09:48:28;;;;;;;18.67;4.90;;;13.90;82.40;;;;;;5011265;28;20823;-74
2021/10/15 09:51:12;;;;;;;13.93;5.93;;;13.90;83.20;;;;;;5011675;28;20420;-73
2021/10/15 09:53:41;;;;;;;9.77;5.67;;;13.90;84.30;;;;;;5011053;28;20535;-74
2021/10/15 09:56:07;;;;;;;8.90;5.80;;;13.90;85.10;;;;;;4994086;28;20417;-75
2021/10/15 09:58:33;;;;;;;11.40;5.70;;;13.80;86.80;;;;;;5012264;28;20402;-76
2021/10/15 10:00:59;;;;;;;18.17;6.43;;;13.80;88.70;;;;;;5012335;28;20499;-74
2021/10/15 10:03:26;;;;;;;10.90;6.90;;;13.70;89.80;;;;;;5012330;28;20181;-74
2021/10/15 10:05:52;;;;;;;7.50;6.37;;;13.70;90.40;;;;;;5010672;28;20940;-73
2021/10/15 10:08:18;;;;;;;15.60;7.17;;;13.60;90.80;;;;;;5011019;28;20466;-75
2021/10/15 10:10:45;;;;;;;13.07;7.00;;;13.60;91.50;;;;;;5012326;28;20171;-74
2021/10/15 10:13:12;;;;;;;14.20;8.00;;;13.60;92.00;;;;;;5011848;28;20496;-74
2021/10/15 10:15:40;;;;;;;9.77;6.80;;;13.60;92.70;;;;;;5010727;28;20417;-73
2021/10/15 10:18:33;;;;;;;12.43;7.90;;;13.60;93.10;;;;;;5010703;28;20434;-74
2021/10/15 10:21:09;;;;;;;12.27;7.77;;;13.70;93.50;;;;;;5011684;28;20417;-75
2021/10/15 10:23:48;;;;;;;11.63;6.63;;;13.80;93.70;;;;;;5013471;28;20405;-74
2021/10/15 10:26:22;;;;;;;13.50;7.50;;;14.00;93.70;;;;;;5014110;28;20541;-73
2021/10/15 10:29:18;;;;;;;11.70;6.73;;;14.10;93.40;;;;;;5029879;28;20948;-73
2021/10/15 10:31:44;;;;;;;9.83;6.27;;;14.30;93.40;;;;;;5016280;28;20815;-73
2021/10/15 10:34:14;;;;;;;13.63;6.70;;;14.40;93.20;;;;;;5015772;28;20415;-75
2021/10/15 10:37:00;;;;;;;9.73;5.90;;;14.40;92.90;;;;;;5012943;28;20447;-74
2021/10/15 10:39:28;;;;;;;9.00;5.73;;;14.50;92.80;;;;;;5015745;28;20741;-76
2021/10/15 10:42:07;;;;;;;8.27;6.33;;;14.50;92.60;;;;;;5013950;28;20411;-74
2021/10/15 10:45:00;;;;;;;14.90;6.67;;;14.50;92.40;;;;;;4994370;28;20422;-77
2021/10/15 10:47:27;;;;;;;5.80;4.70;;;14.50;92.50;;;;;;4994972;28;20482;-75
2021/10/15 10:50:06;;;;;;;6.70;4.57;;;14.50;92.50;;;;;;4995325;28;20466;-74
2021/10/15 10:52:55;;;;;;;16.90;6.10;;;14.40;92.50;;;;;;4995346;28;20463;-74
2021/10/15 10:55:39;;;;;;;8.37;5.30;;;14.40;92.60;;;;;;5006014;28;20426;-74
2021/10/15 10:58:32;;;;;;;6.57;4.50;;;14.30;93.10;;;;;;5012712;28;21032;-74
2021/10/15 11:01:27;;;;;;;8.93;5.87;;;14.20;92.40;;;;;;5014950;28;20428;-74
2021/10/15 11:03:55;;;;;;;9.37;5.50;;;14.10;92.50;;;;;;4997227;28;20418;-74
2021/10/15 11:06:21;;;;;;;8.27;5.53;;;14.00;93.10;;;;;;5013528;28;20434;-75
2021/10/15 11:08:47;;;;;;;9.90;5.77;;;13.90;93.20;;;;;;4996934;28;20924;-73
2021/10/15 11:11:22;;;;;;;7.57;5.33;;;13.90;93.40;;;;;;5013806;28;20433;-76
2021/10/15 11:13:48;;;;;;;6.97;6.00;;;13.90;93.50;;;;;;5014934;28;20683;-75
2021/10/15 11:16:27;;;;;;;8.17;6.00;;;13.90;93.60;;;;;;5014717;28;20441;-73
2021/10/15 11:18:54;;;;;;;8.87;6.70;;;13.90;93.70;;;;;;5013349;28;20416;-74
2021/10/15 11:21:20;;;;;;;8.27;6.53;;;13.80;93.40;;;;;;5014085;28;20512;-74
2021/10/15 11:23:47;;;;;;;8.30;5.80;;;13.80;93.50;;;;;;5014521;28;20907;-74
2021/10/15 11:26:14;;;;;;;11.03;7.10;;;13.70;93.70;;;;;;5007797;28;20438;-74
2021/10/15 11:28:40;;;;;;;8.20;5.80;;;13.60;94.00;;;;;;5008637;28;20426;-73
2021/10/15 11:31:13;;;;;;;5.60;4.63;;;13.60;93.80;;;;;;5017094;28;20438;-77
2021/10/15 11:33:39;;;;;;;5.83;3.20;;;13.50;93.90;;;;;;5019273;28;20190;-78
2021/10/15 11:36:07;;;;;;;4.10;2.40;;;13.50;93.50;;;;;;5017748;28;20460;-78
2021/10/15 11:38:33;;;;;;;6.20;3.57;;;13.40;93.20;;;;;;5001514;28;20440;-79
2021/10/15 11:41:06;;;;;;;4.80;3.30;;;13.40;93.30;;;;;;5023074;28;20430;-79
2021/10/15 11:43:34;;;;;;;5.50;3.17;;;13.40;93.00;;;;;;5016524;28;20495;-77
2021/10/15 11:46:02;;;;;;;5.87;3.93;;;13.50;92.90;;;;;;5015009;28;20421;-78
2021/10/15 11:48:39;;;;;;;8.80;5.87;;;13.60;92.90;;;;;;5036058;28;20428;-78
2021/10/15 11:51:06;;;;;;;8.30;4.27;;;13.70;92.70;;;;;;5038017;28;20426;-77
2021/10/15 11:53:34;;;;;;;4.67;3.10;;;13.80;92.30;;;;;;5039552;28;20599;-79
2021/10/15 11:56:03;;;;;;;5.40;3.10;;;13.90;91.90;;;;;;5040619;28;20413;-77
2021/10/15 11:58:37;;;;;;;7.33;2.80;;;14.00;91.60;;;;;;5025176;28;20417;-78
2021/10/15 12:01:10;;;;;;;7.13;2.83;;;14.20;91.20;;;;;;5019382;28;20439;-78
2021/10/15 12:03:47;;;;;;;4.10;2.73;;;14.40;91.00;;;;;;5040083;28;20414;-78
2021/10/15 12:06:14;;;;;;;3.83;2.73;;;14.60;90.30;;;;;;5050295;28;20425;-79
2021/10/15 12:08:41;;;;;;;11.70;5.73;;;14.80;89.70;;;;;;5053966;28;20439;-78
2021/10/15 12:11:13;;;;;;;4.77;3.80;;;14.90;89.20;;;;;;5051390;28;20998;-77
2021/10/15 12:13:39;;;;;;;6.10;3.80;;;15.10;88.00;;;;;;5040392;28;20409;-78
2021/10/15 12:16:18;;;;;;;90.37;58.23;;;15.20;87.50;;;;;;5026591;28;20476;-79
2021/10/15 12:18:44;;;;;;;6.40;4.13;;;15.30;87.20;;;;;;5017275;28;20763;-77
2021/10/15 12:21:11;;;;;;;4.73;4.23;;;15.40;85.90;;;;;;5016438;28;20509;-78
2021/10/15 12:23:52;;;;;;;5.43;3.47;;;15.50;85.00;;;;;;5018047;28;20171;-77
2021/10/15 12:26:20;;;;;;;6.87;3.10;;;15.40;84.60;;;;;;5018566;28;20437;-80
2021/10/15 12:28:45;;;;;;;8.03;4.50;;;15.40;84.50;;;;;;5018040;28;20418;-79
2021/10/15 12:31:25;;;;;;;6.30;4.30;;;15.30;83.70;;;;;;5014851;28;20589;-78
2021/10/15 12:34:06;;;;;;;8.50;4.47;;;15.10;83.90;;;;;;5019469;28;20193;-78
2021/10/15 12:36:32;;;;;;;16.97;11.07;;;15.10;83.90;;;;;;5016034;28;20626;-79
2021/10/15 12:39:14;;;;;;;5.00;3.37;;;15.20;83.60;;;;;;5015110;28;20433;-78
2021/10/15 12:41:39;;;;;;;4.80;3.07;;;15.30;82.20;;;;;;5015510;28;20416;-77
2021/10/15 12:44:39;;;;;;;5.93;3.50;;;15.20;79.40;;;;;;5015154;28;20930;-78
2021/10/15 12:47:07;;;;;;;5.57;3.27;;;15.20;79.80;;;;;;5013824;28;20222;-79
2021/10/15 12:49:56;;;;;;;8.93;5.70;;;15.20;79.60;;;;;;5017655;28;20702;-77
2021/10/15 12:52:37;;;;;;;35.47;28.57;;;15.30;79.30;;;;;;5006736;28;20454;-77
2021/10/15 12:55:12;;;;;;;5.73;2.47;;;15.30;80.00;;;;;;5003470;28;20801;-79
2021/10/15 12:57:38;;;;;;;3.03;1.67;;;15.40;77.90;;;;;;5003518;28;20445;-78
2021/10/15 13:00:06;;;;;;;4.70;2.50;;;15.30;77.80;;;;;;4998498;28;20556;-79
2021/10/15 13:02:31;;;;;;;3.57;2.30;;;15.30;77.80;;;;;;4997752;28;20650;-78
2021/10/15 13:04:59;;;;;;;4.50;2.70;;;15.40;77.20;;;;;;4998002;28;20403;-78